ADDS METAR Data INFO
IDs: Format: Raw Decoded Include TAF

Data at: 0919 UTC 13 Dec 2017

KMRF 130856Z AUTO 35003KT 10SM CLR M03/M07 A3024 RMK AO2 SLP235 6//// T10331072 FZRANO
KMRF 130756Z AUTO 10SM CLR M04/M07 RMK AO2 SLPNO T10391067 FZRANO $
KMRF 130656Z AUTO 34006KT 10SM CLR M04/M06 A3027 RMK AO2 SLP248 T10391061 401331039 FZRANO
KMRF 130556Z AUTO 36003KT 10SM CLR M04/M07 A3029 RMK AO2 SLP255 6//// T10391067 10083 21039 58016 FZRANO
KMRF 130456Z AUTO 02004KT 10SM CLR M03/M07 A3032 RMK AO2 SLP269 T10331067 FZRANO
KMRF 130356Z AUTO 34009KT 10SM CLR M02/M06 A3033 RMK AO2 SLP273 T10221056 FZRANO
KMRF 130156Z AUTO 10SM CLR M01/M07 RMK AO2 SLPNO T10061072 FZRANO $
KMRF 130056Z AUTO 07004KT 10SM CLR 04/M09 A3036 RMK AO2 SLP280 T00391089
KMRF 122356Z AUTO 10SM CLR 08/M10 RMK AO2 SLPNO 6//// T00831100 10133 20083 $
KMRF 122256Z AUTO 14009KT 10SM CLR 13/M11 A3035 RMK AO2 SLP266 T01281111 TSNO
KMRF 122156Z AUTO 08003KT 10SM CLR 13/M09 A3037 RMK AO2 SLP277 T01331094
KMRF 122056Z AUTO 10008KT 10SM CLR 13/M08 A3039 RMK AO2 SLP285 6//// T01331078 56033
KMRF 121956Z AUTO 14007KT 10SM CLR 13/M08 A3041 RMK AO2 SLP295 T01281083
KMRF 121916Z AUTO 00000KT 10SM FEW001 12/M10 RMK AO2 $
KMRF 121856Z AUTO 10SM CLR 12/M11 A3045 RMK AO2 SLP311 T01221106 $
KMRF 121656Z AUTO 04015KT 10SM CLR 09/M08 A3051 RMK AO2 SLP335 T00941083
KMRF 121456Z AUTO 35006KT 10SM CLR 04/M06 A3050 RMK AO2 SLP332 6//// T00441056 TSNO
KMRF 121356Z AUTO 04008KT 10SM CLR 03/M06 A3048 RMK AO2 SLP325 T00331061
KMRF 121256Z AUTO 04009KT 10SM CLR 03/M06 RMK AO2 SLPNO T00331061 $
KMRF 121156Z AUTO 00000KT 10SM CLR 03/M07 A3043 RMK AO2 SLP296 6//// 7//// T00331067 10033 21039 53009 TSNO
KMRF 121056Z AUTO 35009KT 10SM CLR 02/M04 A3041 RMK AO2 SLP284 T00171039 FZRANO
KMRF 120956Z AUTO 34006KT 10SM CLR M03/M05 A3041 RMK AO2 SLP292 T10281050 FZRANO
KMRF 120856Z AUTO 32007KT 10SM CLR M03/M05 A3040 RMK AO2 SLP290 6//// T10331050 FZRANO TSNO
KMRF 120756Z AUTO 35004KT 10SM CLR M03/M05 A3039 RMK AO2 SLP289 T10331050 FZRANO
KMRF 120556Z AUTO 35009KT 10SM CLR M03/M04 A3039 RMK AO2 SLP294 6//// T10331044 10100 21039 50007 FZRANO
KMRF 120456Z AUTO 34004KT 10SM CLR M03/M05 A3039 RMK AO2 SLP298 T10331050 FZRANO
KMRF 120356Z AUTO 00000KT 10SM CLR M01/M02 A3038 RMK AO2 SLP295 T10061022 FZRANO
KMRF 120256Z AUTO 14003KT 10SM 01/M02 A3036 RMK AO2 SLP293 6//// T00061017 51012 FZRANO
KMRF 120156Z AUTO 13003KT 10SM 03/M01 A3035 RMK AO2 SLP291 T00281006
KMRF 120056Z AUTO 22006KT 10SM CLR 07/M02 A3034 RMK AO2 SLP280 T00671022
KMRF 112356Z AUTO 23007KT 10SM CLR 10/M03 A3032 RMK AO2 SLP267 T01001028 10133 20089 55002
KMRF 112256Z AUTO 26007KT 10SM CLR 13/M03 A3032 RMK AO2 SLP260 T01331033
KMRF 112156Z AUTO 25009KT 10SM CLR 13/M03 A3033 RMK AO2 SLP266 T01331033